Larnaca, Cypern

02:37 PM EEST on Juli 19, 2018 (GMT +0300)
All You Can Surf | | Change Station

Elev 5 ft 34.95 °N, 33.65 °E | Updated 7 seconds ago

Partly Cloudy
Växlande molnighet
84.4 °F
Feels Like 82 °F
N
23.9
Vind Växlande Vind from S/SV
Gusts 24.8 miles/tim

Idag
High -- | Low -- °F
--% Chance of Precip.
Yesterday
High -- | Low -- °F
Precip. -- tum
Lufttryck 29.62 tum
Sikt 6.2 miles
Molnigt Few 2500 ft
Värmeindex 82 °F
Daggpunkt 50 °F
Luftfuktighet 31%
Rainfall 0.00 tum
Snow Depth Not available.
5:45 AM 7:57 PM
Första kvarteret, 46% visible
METAR LCLK 191130Z 22019KT 9999 FEW025 32/21 Q1003 NOSIG
Lufttryck 29.62 tum
Sikt 6.2 miles
Molnigt Few 2500 ft
Värmeindex 82 °F
Daggpunkt 50 °F
Luftfuktighet 31%
Rainfall 0.00 tum
Snow Depth Not available.
5:45 AM 7:57 PM
Första kvarteret, 46% visible
METAR LCLK 191130Z 22019KT 9999 FEW025 32/21 Q1003 NOSIG

Get Severe Weather Alerts

Thanks for signing up!

Be on the lookout for a verification email in your inbox.

You'll start receiving the daily forecast at 6 AM.

×

10-Day Weather Forecast

×

Almanac

Astronomi

Jul. 19, 2018 Rise Set
Actual Time
Civil Twilight
Nautical Twilight
Astronomical Twilight
Månen
Length Of Visible Light
Dagens längd
Tomorrow will be .
, % of the Moon is Illuminated

Today's Extremes

Country Highs Country Lows

Community

WunderPhotos

Category 6

Welcome to Category 6. This is the collective home for Weather Underground's featured writeups by Dr. Jeff Masters (right), Bob Henson (left), Chris Burt, and other regular contributors.

Nearby

Air Quality

  Air Quality AQ Index Pollutant
Not available.

Snödjup

Station Depth Elevation

Earthquake Activity

Stad Distance Mag. Time & Date
Minimum magnitude displayed is 2.5.

Coastal Water Temperatures

Plats Temperatur

Stations

Nearby Weather Stations

Station Location Temp Vindavkylning Daggpunkt Luftfuktighet Vind Precip. Elev Uppdaterad Type